Consulta les dades en temps real de l'estació municipal de Susqueda - Veïnat del Coll
| Hora UTC | 06:00 |
|---|---|
| Temperatura | 24.2 ºC |
| Humitat | 50.2 % |
| Pressió | 1024.6 hPa |
| Pluja | 0.0 mm |
| Velocitat vent | 4.6 km/h |
| Direcció vent | SSW |
| Radiació solar | 65.6 W/m² |
| Temperatura (ºC) | Humitat (%) | Pressió (hPa) | Velocitat vent (km/h) | Precipitació (mm) | Radiació solar (W/m²) | |||||||||||||
|---|---|---|---|---|---|---|---|---|---|---|---|---|---|---|---|---|---|---|
| Hora UTC | Aire | Humitat | Pressió | Vel. | Dir. | Vel. Max | Dir. | Intent. màx 5 min. | Rad. Sol. | |||||||||
| 00:05 | 24.1 | 49.9 | 1025.3 | 7.1 | SSW | 7.1 | SSW | 0.0 | 0.1 | |||||||||
| 00:10 | 24.1 | 49.7 | 1025.3 | 6.4 | SW | 13.1 | SW | 0.0 | 0.1 | |||||||||
| 00:15 | 24.1 | 49.4 | 1025.3 | 6.9 | SW | 14.8 | WSW | 0.0 | 0.1 | |||||||||
| 00:20 | 24.1 | 49.6 | 1025.3 | 6.1 | SW | 14.1 | SSW | 0.0 | 0.1 | |||||||||
| 00:25 | 24.0 | 49.7 | 1025.3 | 5.7 | SW | 14.5 | SW | 0.0 | 0.1 | |||||||||
| 00:30 | 24.1 | 49.7 | 1025.3 | 6.6 | SW | 13.1 | SW | 0.0 | 0.1 | |||||||||
| 00:35 | 24.1 | 49.5 | 1025.2 | 5.8 | SW | 12.4 | SSW | 0.0 | 0.1 | |||||||||
| 00:40 | 24.1 | 49.4 | 1025.2 | 5.7 | SW | 20.5 | S | 0.0 | 0.1 | |||||||||
| 00:45 | 24.1 | 49.4 | 1025.1 | 6.3 | SW | 13.8 | WSW | 0.0 | 0.1 | |||||||||
| 00:50 | 24.0 | 49.5 | 1025.1 | 6.5 | SW | 12.7 | WSW | 0.0 | 0.1 | |||||||||
| 00:55 | 24.0 | 49.6 | 1025.1 | 5.6 | SW | 12.0 | SW | 0.0 | 0.1 | |||||||||
| 01:00 | 23.9 | 49.7 | 1025.1 | 7.0 | SW | 17.6 | SSW | 0.0 | 0.1 | |||||||||
| 01:05 | 24.0 | 49.3 | 1025.0 | 7.9 | SW | 14.1 | SSW | 0.0 | 0.1 | |||||||||
| 01:10 | 24.0 | 49.4 | 1025.0 | 8.4 | SW | 20.1 | SSW | 0.0 | 0.1 | |||||||||
| 01:15 | 24.0 | 49.5 | 1025.0 | 6.5 | SW | 15.2 | S | 0.0 | 0.1 | |||||||||
| 01:20 | 24.1 | 49.3 | 1025.0 | 7.1 | SW | 17.3 | SW | 0.0 | 0.1 | |||||||||
| 01:25 | 24.1 | 48.9 | 1024.9 | 8.5 | SW | 19.4 | SW | 0.0 | 0.1 | |||||||||
| 01:30 | 24.0 | 49.2 | 1024.9 | 7.7 | SW | 19.1 | SW | 0.0 | 0.1 | |||||||||
| 01:35 | 24.0 | 49.2 | 1024.9 | 7.8 | SW | 17.6 | SSW | 0.0 | 0.1 | |||||||||
| 01:40 | 24.0 | 49.6 | 1024.9 | 7.7 | SW | 20.5 | SSW | 0.0 | 0.1 | |||||||||
| 01:45 | 24.1 | 49.7 | 1025.0 | 7.8 | SW | 14.8 | SSW | 0.0 | 0.1 | |||||||||
| 01:50 | 24.1 | 50.1 | 1025.0 | 7.8 | SW | 15.5 | W | 0.0 | 0.1 | |||||||||
| 01:55 | 24.1 | 49.9 | 1024.9 | 6.8 | SW | 15.2 | W | 0.0 | 0.1 | |||||||||
| 02:00 | 24.0 | 50.1 | 1024.9 | 6.0 | SW | 13.1 | SW | 0.0 | 0.1 | |||||||||
| 02:05 | 24.0 | 50.3 | 1024.9 | 6.1 | SW | 14.1 | SW | 0.0 | 0.1 | |||||||||
| 02:10 | 24.0 | 50.3 | 1024.9 | 5.4 | SW | 14.5 | W | 0.0 | 0.1 | |||||||||
| 02:15 | 24.0 | 50.4 | 1024.9 | 6.3 | SW | 15.2 | W | 0.0 | 0.1 | |||||||||
| 02:20 | 23.9 | 50.8 | 1024.9 | 5.3 | SW | 14.8 | SSW | 0.0 | 0.1 | |||||||||
| 02:25 | 23.7 | 51.4 | 1024.8 | 5.2 | SW | 11.3 | WSW | 0.0 | 0.1 | |||||||||
| 02:30 | 23.7 | 51.2 | 1024.8 | 5.9 | SW | 16.9 | W | 0.0 | 0.1 | |||||||||
| 02:35 | 23.8 | 51.1 | 1024.8 | 6.2 | WSW | 13.1 | W | 0.0 | 0.1 | |||||||||
| 02:40 | 23.8 | 51.0 | 1024.8 | 5.3 | WSW | 13.4 | WSW | 0.0 | 0.1 | |||||||||
| 02:45 | 23.7 | 50.7 | 1024.8 | 6.5 | SW | 15.2 | SW | 0.0 | 0.1 | |||||||||
| 02:50 | 23.8 | 50.2 | 1024.8 | 6.6 | SW | 14.8 | SW | 0.0 | 0.1 | |||||||||
| 02:55 | 23.9 | 50.0 | 1024.7 | 5.8 | SW | 13.1 | SSW | 0.0 | 0.1 | |||||||||
| 03:00 | 24.0 | 49.7 | 1024.7 | 6.4 | SW | 18.0 | W | 0.0 | 0.1 | |||||||||
| 03:05 | 23.9 | 49.9 | 1024.7 | 6.7 | SW | 14.5 | SSE | 0.0 | 0.1 | |||||||||
| 03:10 | 23.9 | 49.9 | 1024.7 | 6.6 | SW | 17.6 | WSW | 0.0 | 0.1 | |||||||||
| 03:15 | 24.1 | 49.4 | 1024.7 | 6.3 | SW | 15.2 | SSW | 0.0 | 0.1 | |||||||||
| 03:20 | 24.3 | 48.9 | 1024.7 | 6.5 | SW | 15.2 | SW | 0.0 | 0.1 | |||||||||
| 03:25 | 24.3 | 48.7 | 1024.7 | 6.1 | SW | 16.9 | SW | 0.0 | 0.1 | |||||||||
| 03:30 | 24.4 | 48.5 | 1024.7 | 6.5 | SW | 15.5 | S | 0.0 | 0.1 | |||||||||
| 03:35 | 24.4 | 48.0 | 1024.6 | 5.9 | SW | 13.8 | WSW | 0.0 | 0.1 | |||||||||
| 03:40 | 24.6 | 47.7 | 1024.6 | 5.5 | SW | 14.1 | SSW | 0.0 | 0.1 | |||||||||
| 03:45 | 24.6 | 47.7 | 1024.6 | 4.7 | SW | 12.4 | SW | 0.0 | 0.1 | |||||||||
| 03:50 | 24.6 | 47.7 | 1024.6 | 5.0 | SW | 17.6 | SW | 0.0 | 0.1 | |||||||||
| 03:55 | 24.6 | 47.6 | 1024.5 | 5.0 | SW | 11.3 | SSE | 0.0 | 0.1 | |||||||||
| 04:00 | 24.7 | 47.3 | 1024.5 | 5.1 | SSW | 12.7 | S | 0.0 | 0.1 | |||||||||
| 04:05 | 24.7 | 47.3 | 1024.5 | 4.3 | SW | 12.0 | WNW | 0.0 | 0.1 | |||||||||
| 04:10 | 24.6 | 47.5 | 1024.5 | 4.2 | SW | 14.5 | SW | 0.0 | 0.1 | |||||||||
| 04:15 | 24.6 | 47.4 | 1024.4 | 5.1 | SW | 15.9 | SSW | 0.0 | 0.1 | |||||||||
| 04:20 | 24.6 | 47.5 | 1024.4 | 6.2 | SSW | 14.5 | SW | 0.0 | 0.1 | |||||||||
| 04:25 | 24.6 | 47.7 | 1024.4 | 5.8 | SSW | 14.5 | SW | 0.0 | 0.1 | |||||||||
| 04:30 | 24.4 | 48.2 | 1024.4 | 4.5 | SW | 13.8 | S | 0.0 | 0.1 | |||||||||
| 04:35 | 24.4 | 48.5 | 1024.4 | 4.6 | SSW | 13.8 | SSW | 0.0 | 0.1 | |||||||||
| 04:40 | 24.3 | 48.8 | 1024.4 | 5.1 | SW | 14.5 | SSW | 0.0 | 0.1 | |||||||||
| 04:45 | 24.3 | 48.5 | 1024.3 | 4.6 | SW | 11.3 | SW | 0.0 | 0.1 | |||||||||
| 04:50 | 24.4 | 48.3 | 1024.3 | 4.7 | SSW | 11.3 | SW | 0.0 | 0.1 | |||||||||
| 04:55 | 24.3 | 48.3 | 1024.3 | 3.6 | SW | 10.2 | WNW | 0.0 | 0.2 | |||||||||
| 05:00 | 24.1 | 48.5 | 1024.3 | 2.9 | SW | 11.6 | SW | 0.0 | 0.2 | |||||||||
| 05:05 | 24.2 | 48.0 | 1024.3 | 3.9 | SW | 10.6 | W | 0.0 | 0.5 | |||||||||
| 05:10 | 24.1 | 48.5 | 1024.3 | 3.7 | SSW | 10.6 | WSW | 0.0 | 1.1 | |||||||||
| 05:15 | 24.0 | 49.3 | 1024.4 | 4.2 | SW | 11.6 | S | 0.0 | 2.5 | |||||||||
| 05:20 | 23.9 | 50.0 | 1024.4 | 4.0 | SSW | 9.2 | W | 0.0 | 4.2 | |||||||||
| 05:25 | 23.8 | 50.3 | 1024.5 | 3.6 | SSW | 10.9 | SSW | 0.0 | 6.9 | |||||||||
| 05:30 | 23.7 | 50.6 | 1024.5 | 4.3 | SSW | 8.8 | SSW | 0.0 | 11.1 | |||||||||
| 05:35 | 23.7 | 50.6 | 1024.5 | 4.5 | SSW | 10.6 | SW | 0.0 | 16.8 | |||||||||
| 05:40 | 23.8 | 50.3 | 1024.5 | 4.6 | SSW | 10.9 | SW | 0.0 | 24.1 | |||||||||
| 05:45 | 23.8 | 50.6 | 1024.6 | 5.1 | SSW | 11.3 | S | 0.0 | 32.9 | |||||||||
| 05:50 | 24.0 | 50.5 | 1024.6 | 4.6 | SSW | 12.0 | SSW | 0.0 | 43.0 | |||||||||
| 05:55 | 24.1 | 50.4 | 1024.6 | 3.8 | SSW | 10.9 | SSW | 0.0 | 53.8 | |||||||||
| 06:00 | 24.2 | 50.2 | 1024.6 | 4.6 | SSW | 12.0 | SSW | 0.0 | 65.6 | |||||||||
| Màxima | 24.7 | 51.4 | 1025.3 | 8.5 | SW | 20.5 | SSW | 0.0 | 65.6 | |||||||||
| Mínima | 20 | 47.3 | 1024.3 | |||||||||||||||
| Total | 0.0 | |||||||||||||||||